Terminal Aerodrome Forecast
Issued by NWS Burlington, VT

Home | Current Version | Previous Version | Text Only | Print | Product List | Glossary On
Versions: 1 2 3 4 5 6 7 8 9 10 11 12 13 14 15 16 17 18 19
985
FTUS41 KBTV 030542
TAFBTV
TAF
KBTV 030542Z 0306/0406 33005KT P6SM BKN010 OVC020
      TEMPO 0308/0312 BKN007 OVC012
     FM031400 00000KT P6SM BKN015
     FM031600 VRB03KT P6SM BKN035
     FM031900 34005KT P6SM SCT110
     FM040400 00000KT P6SM FEW060=

USA.gov is the U.S. government's official web portal to all federal, state and local government web resources and services.